MSC Maria Saveria — 3FLE8 — position and weather

sailwx.info

Track history (hours):
 
Tides and Currents Weather Stations Pressure Air Temp Water Temp Dewpoint Dewpoint Depression Visibility Wind Speed Wind Dir Waves Ship Positions

MSC Maria Saveria

Last reported at 2017-Jan-22 06:33 UTC. Time now 2017-Jan-22 10:15 UTC.
Position N 39°20' W 009°50'.

Length 366 m; draft 12.2 m.

Type: Ship (hazmat cat A). MMSI: 372400000.

Date/timePositionNaut miles runAvg speedWind from/ knotsBaromVisibWave heightAir tempDewpointWater temp
2017-Jan-22 06:33N 39°20' W 009°50'1514.9
2017-Jan-22 05:34N 39°05' W 009°51'1514.8
2017-Jan-22 04:34N 38°50' W 009°51'1414.2
2017-Jan-22 03:33N 38°36' W 009°47'1414.4
2017-Jan-22 02:34N 38°26' W 009°33'1414.4
2017-Jan-22 01:33N 38°16' W 009°20'1514.6
2017-Jan-22 00:33N 38°06' W 009°08'1414.4
2017-Jan-21 23:34N 37°55' W 008°56'4 4.0
2017-Jan-21 22:31N 37°56' W 008°51'0 0.0
2017-Jan-21 21:34N 37°56' W 008°51'0 0.0
2017-Jan-21 20:34N 37°56' W 008°51'0 0.0
2017-Jan-21 19:34N 37°56' W 008°51'0 0.0
2017-Jan-21 18:34N 37°56' W 008°51'0 0.0
2017-Jan-21 17:33N 37°56' W 008°51'0 0.0
2017-Jan-21 16:34N 37°56' W 008°51'0 0.0
2017-Jan-21 15:34N 37°56' W 008°51'0 0.0
2017-Jan-21 14:34N 37°56' W 008°51'0 0.0
2017-Jan-21 13:34N 37°56' W 008°51'0 0.0
2017-Jan-21 12:34N 37°56' W 008°51'0 0.0
2017-Jan-21 11:34N 37°56' W 008°51'3 2.6
2017-Jan-21 10:34N 37°53' W 008°52'1313.4
2017-Jan-21 09:33N 37°41' W 008°58'1616.3
2017-Jan-21 08:33N 37°26' W 009°07'18916.4
2017-Jan-20 21:04N 35°58' W 005°38'1020.2
2017-Jan-20 20:33N 36°00' W 005°26'88118.7
2017-Jan-18 21:33N 38°28' E 012°44'1717.3
2017-Jan-18 20:34N 38°27' E 013°06'1717.3
2017-Jan-18 19:34N 38°26' E 013°28'1717.0
2017-Jan-18 18:34N 38°25' E 013°50'1717.1
2017-Jan-18 17:34N 38°22' E 014°12'1716.9
2017-Jan-18 16:33N 38°21' E 014°33'1717.5
2017-Jan-18 15:33N 38°20' E 014°55'1717.1
2017-Jan-18 14:33N 38°22' E 015°17'1716.8
2017-Jan-18 13:34N 38°25' E 015°38'1312.6
2017-Jan-18 12:33N 38°27' E 015°54'0 0.4
2017-Jan-18 11:33N 38°27' E 015°54'0 0.0
2017-Jan-18 10:33N 38°27' E 015°54'0 0.0
2017-Jan-18 09:33N 38°27' E 015°54'0 0.0
2017-Jan-18 08:33N 38°27' E 015°54'0 0.0
2017-Jan-18 07:33N 38°27' E 015°54'0 0.0
2017-Jan-18 06:33N 38°27' E 015°54'0 0.0
2017-Jan-18 05:30N 38°27' E 015°54'0 0.0
2017-Jan-18 04:33N 38°27' E 015°54'0 0.0
2017-Jan-18 03:33N 38°27' E 015°54'0 0.0
2017-Jan-18 02:33N 38°27' E 015°54'0 0.0
2017-Jan-18 01:33N 38°27' E 015°54'0 0.0
2017-Jan-18 00:33N 38°27' E 015°54'0 0.0
2017-Jan-17 23:30N 38°27' E 015°54'0 0.0
2017-Jan-17 22:33N 38°27' E 015°54'0 0.0
2017-Jan-17 21:33N 38°27' E 015°54'0 0.0
2017-Jan-17 20:33N 38°27' E 015°54'0 0.0
2017-Jan-17 19:33N 38°27' E 015°54'0 0.0
2017-Jan-17 18:33N 38°27' E 015°54'2 1.5
2017-Jan-17 17:33N 38°27' E 015°52'1 1.2
2017-Jan-17 16:33N 38°27' E 015°51'1 0.9
2017-Jan-17 15:33N 38°27' E 015°50'1111.2
2017-Jan-17 14:33N 38°17' E 015°43'1212.1
2017-Jan-17 13:33N 38°06' E 015°37'1615.9
2017-Jan-17 12:34N 37°51' E 015°45'2019.5
2017-Jan-17 11:33N 37°43' E 016°07'  
Track history (hours):
 
Tides and Currents Weather Stations Pressure Air Temp Water Temp Dewpoint Dewpoint Depression Visibility Wind Speed Wind Dir Waves Ship Positions

MSC Maria Saveria

Last reported at 2017-Jan-22 06:33 UTC. Time now 2017-Jan-22 10:15 UTC.
Position N 39°20' W 009°50'.

Length 366 m; draft 12.2 m.

Type: Ship (hazmat cat A). MMSI: 372400000.

Date/timePositionNaut miles runAvg speedWind from/ knotsBaromVisibWave heightAir tempDewpointWater temp
2017-Jan-22 06:33N 39°20' W 009°50'1514.9
2017-Jan-22 05:34N 39°05' W 009°51'1514.8
2017-Jan-22 04:34N 38°50' W 009°51'1414.2
2017-Jan-22 03:33N 38°36' W 009°47'1414.4
2017-Jan-22 02:34N 38°26' W 009°33'1414.4
2017-Jan-22 01:33N 38°16' W 009°20'1514.6
2017-Jan-22 00:33N 38°06' W 009°08'1414.4
2017-Jan-21 23:34N 37°55' W 008°56'4 4.0
2017-Jan-21 22:31N 37°56' W 008°51'0 0.0
2017-Jan-21 21:34N 37°56' W 008°51'0 0.0
2017-Jan-21 20:34N 37°56' W 008°51'0 0.0
2017-Jan-21 19:34N 37°56' W 008°51'0 0.0
2017-Jan-21 18:34N 37°56' W 008°51'0 0.0
2017-Jan-21 17:33N 37°56' W 008°51'0 0.0
2017-Jan-21 16:34N 37°56' W 008°51'0 0.0
2017-Jan-21 15:34N 37°56' W 008°51'0 0.0
2017-Jan-21 14:34N 37°56' W 008°51'0 0.0
2017-Jan-21 13:34N 37°56' W 008°51'0 0.0
2017-Jan-21 12:34N 37°56' W 008°51'0 0.0
2017-Jan-21 11:34N 37°56' W 008°51'3 2.6
2017-Jan-21 10:34N 37°53' W 008°52'1313.4
2017-Jan-21 09:33N 37°41' W 008°58'1616.3
2017-Jan-21 08:33N 37°26' W 009°07'18916.4
2017-Jan-20 21:04N 35°58' W 005°38'1020.2
2017-Jan-20 20:33N 36°00' W 005°26'88118.7
2017-Jan-18 21:33N 38°28' E 012°44'1717.3
2017-Jan-18 20:34N 38°27' E 013°06'1717.3
2017-Jan-18 19:34N 38°26' E 013°28'1717.0
2017-Jan-18 18:34N 38°25' E 013°50'1717.1
2017-Jan-18 17:34N 38°22' E 014°12'1716.9
2017-Jan-18 16:33N 38°21' E 014°33'1717.5
2017-Jan-18 15:33N 38°20' E 014°55'1717.1
2017-Jan-18 14:33N 38°22' E 015°17'1716.8
2017-Jan-18 13:34N 38°25' E 015°38'1312.6
2017-Jan-18 12:33N 38°27' E 015°54'0 0.4
2017-Jan-18 11:33N 38°27' E 015°54'0 0.0
2017-Jan-18 10:33N 38°27' E 015°54'0 0.0
2017-Jan-18 09:33N 38°27' E 015°54'0 0.0
2017-Jan-18 08:33N 38°27' E 015°54'0 0.0
2017-Jan-18 07:33N 38°27' E 015°54'0 0.0
2017-Jan-18 06:33N 38°27' E 015°54'0 0.0
2017-Jan-18 05:30N 38°27' E 015°54'0 0.0
2017-Jan-18 04:33N 38°27' E 015°54'0 0.0
2017-Jan-18 03:33N 38°27' E 015°54'0 0.0
2017-Jan-18 02:33N 38°27' E 015°54'0 0.0
2017-Jan-18 01:33N 38°27' E 015°54'0 0.0
2017-Jan-18 00:33N 38°27' E 015°54'0 0.0
2017-Jan-17 23:30N 38°27' E 015°54'0 0.0
2017-Jan-17 22:33N 38°27' E 015°54'0 0.0
2017-Jan-17 21:33N 38°27' E 015°54'0 0.0
2017-Jan-17 20:33N 38°27' E 015°54'0 0.0
2017-Jan-17 19:33N 38°27' E 015°54'0 0.0
2017-Jan-17 18:33N 38°27' E 015°54'2 1.5
2017-Jan-17 17:33N 38°27' E 015°52'1 1.2
2017-Jan-17 16:33N 38°27' E 015°51'1 0.9
2017-Jan-17 15:33N 38°27' E 015°50'1111.2
2017-Jan-17 14:33N 38°17' E 015°43'1212.1
2017-Jan-17 13:33N 38°06' E 015°37'1615.9
2017-Jan-17 12:34N 37°51' E 015°45'2019.5
2017-Jan-17 11:33N 37°43' E 016°07'  

Dump ship's entire track history